Time;durP1;ratioP1;P1;durP2;ratioP2;P2;SDS_P1;SDS_P2;PMS_P1;PMS_P2;Temp;Humidity;BMP_temperature;BMP_pressure;BME280_temperature;BME280_humidity;BME280_pressure;Samples;Min_cycle;Max_cycle;Signal;HPM_P1;HPM_P2
2022/08/09 00:01:49;;;;;;;9.05;6.80;;;15.20;99.90;;;;;;5069331;28;20415;-78
2022/08/09 00:04:19;;;;;;;8.90;6.60;;;15.40;99.90;;;;;;5072308;28;20434;-78
2022/08/09 00:06:45;;;;;;;10.13;7.00;;;14.90;99.90;;;;;;5071159;28;20419;-78
2022/08/09 00:09:12;;;;;;;9.85;6.53;;;;;;;;;;5088017;28;20548;-78
2022/08/09 00:11:38;;;;;;;9.45;6.50;;;15.20;99.90;;;;;;5050693;28;20448;-78
2022/08/09 00:14:04;;;;;;;7.75;6.30;;;;;;;;;;5054853;28;20430;-78
2022/08/09 00:16:30;;;;;;;8.90;6.50;;;;;;;;;;5071978;28;20434;-78
2022/08/09 00:18:56;;;;;;;8.60;6.55;;;;;;;;;;5082916;28;20423;-78
2022/08/09 00:21:23;;;;;;;8.73;6.72;;;;;;;;;;5070489;28;20454;-78
2022/08/09 00:23:48;;;;;;;9.48;6.65;;;15.00;99.90;;;;;;5059276;28;20419;-78
2022/08/09 00:26:14;;;;;;;9.88;6.80;;;;;;;;;;5071808;28;20872;-78
2022/08/09 00:28:41;;;;;;;8.45;6.32;;;;;;;;;;5071295;28;20416;-78
2022/08/09 00:31:07;;;;;;;9.97;6.93;;;;;;;;;;5070400;28;20426;-78
2022/08/09 00:33:34;;;;;;;10.75;6.95;;;;;;;;;;5054312;28;20473;-78
2022/08/09 00:36:00;;;;;;;10.23;6.15;;;;;;;;;;5034013;28;20433;-78
2022/08/09 00:38:26;;;;;;;9.93;6.72;;;;;;;;;;5047827;28;20454;-78
2022/08/09 00:40:53;;;;;;;8.43;6.60;;;;;;;;;;5087111;28;20415;-78
2022/08/09 00:43:19;;;;;;;8.98;6.57;;;;;;;;;;5070538;28;20424;-78
2022/08/09 00:45:45;;;;;;;7.90;6.15;;;;;;;;;;5072649;28;20514;-78
2022/08/09 00:48:11;;;;;;;8.73;6.20;;;;;;;;;;5067683;28;20480;-78
2022/08/09 00:50:38;;;;;;;9.07;6.70;;;;;;;;;;5070237;28;20460;-78
2022/08/09 00:53:05;;;;;;;11.00;7.10;;;14.70;99.90;;;;;;5085756;28;20415;-78
2022/08/09 00:55:31;;;;;;;8.05;6.57;;;;;;;;;;5053265;28;20926;-78
2022/08/09 00:57:57;;;;;;;9.75;7.07;;;;;;;;;;5071244;28;20407;-77
2022/08/09 01:00:23;;;;;;;9.20;6.18;;;;;;;;;;5085665;28;20419;-78
2022/08/09 01:02:53;;;;;;;9.95;6.82;;;;;;;;;;5068981;28;20408;-77
2022/08/09 01:05:26;;;;;;;9.38;7.00;;;14.70;99.90;;;;;;5070445;28;20483;-78
2022/08/09 01:08:08;;;;;;;9.73;7.03;;;14.80;99.90;;;;;;5070997;28;20457;-77
2022/08/09 01:10:58;;;;;;;10.15;6.95;;;14.40;99.90;;;;;;5084220;28;20420;-77
2022/08/09 01:13:36;;;;;;;8.82;6.80;;;;;;;;;;5067005;28;20768;-77
2022/08/09 01:16:03;;;;;;;9.15;6.03;;;;;;;;;;5069893;28;20424;-77
2022/08/09 01:18:31;;;;;;;6.60;5.13;;;14.50;99.90;;;;;;5078742;28;20428;-78
2022/08/09 01:21:16;;;;;;;7.78;5.40;;;;;;;;;;5087960;28;20400;-77
2022/08/09 01:23:48;;;;;;;6.40;5.10;;;;;;;;;;5085174;28;20420;-77
2022/08/09 01:26:16;;;;;;;6.60;5.13;;;14.40;99.90;;;;;;5085554;28;20423;-77
2022/08/09 01:28:46;;;;;;;7.57;5.82;;;14.40;99.90;;;;;;5064535;28;20494;-77
2022/08/09 01:31:18;;;;;;;9.15;5.53;;;14.10;99.90;;;;;;5054081;28;20407;-77
2022/08/09 01:33:46;;;;;;;6.82;5.00;;;14.10;99.90;;;;;;5070644;28;20403;-78
2022/08/09 01:36:14;;;;;;;7.05;5.03;;;14.00;99.90;;;;;;5070105;28;20515;-78
2022/08/09 01:38:43;;;;;;;7.45;5.30;;;14.10;99.90;;;;;;5065072;28;20961;-78
2022/08/09 01:41:20;;;;;;;7.63;5.15;;;14.30;99.90;;;;;;5056784;28;20451;-78
2022/08/09 01:43:53;;;;;;;7.50;4.75;;;14.00;99.90;;;;;;5070527;28;20486;-78
2022/08/09 01:46:22;;;;;;;7.82;5.47;;;14.10;99.90;;;;;;5069751;28;20430;-77
2022/08/09 01:48:49;;;;;;;8.73;5.38;;;;;;;;;;5069979;28;20422;-77
2022/08/09 01:51:18;;;;;;;9.33;5.43;;;14.30;99.90;;;;;;5065149;28;20433;-77
2022/08/09 01:53:46;;;;;;;10.40;5.68;;;14.10;99.90;;;;;;5070359;28;20863;-77
2022/08/09 01:56:12;;;;;;;7.95;5.30;;;;;;;;;;5068370;28;20438;-77
2022/08/09 01:58:41;;;;;;;8.02;5.75;;;14.10;99.90;;;;;;5070612;28;20395;-77
2022/08/09 02:01:08;;;;;;;8.97;5.80;;;13.70;99.90;;;;;;5086039;28;20399;-78
2022/08/09 02:03:35;;;;;;;6.38;5.20;;;;;;;;;;5069609;28;20435;-78
2022/08/09 02:06:03;;;;;;;7.82;5.53;;;14.00;99.90;;;;;;5067152;28;20423;-77
2022/08/09 02:08:31;;;;;;;7.93;5.60;;;13.90;99.90;;;;;;5070540;28;20829;-78
2022/08/09 02:11:01;;;;;;;6.88;5.10;;;13.90;99.90;;;;;;5070223;28;20406;-78
2022/08/09 02:13:28;;;;;;;8.47;5.00;;;13.90;99.90;;;;;;5066501;28;20497;-78
2022/08/09 02:15:55;;;;;;;8.90;5.15;;;;;;;;;;5068873;28;20749;-77
2022/08/09 02:18:27;;;;;;;8.13;5.13;;;13.80;99.90;;;;;;5085641;28;20814;-77
2022/08/09 02:21:07;;;;;;;7.20;5.47;;;14.00;99.90;;;;;;5068954;28;20419;-78
2022/08/09 02:23:43;;;;;;;6.82;5.18;;;13.90;99.90;;;;;;5079522;28;20417;-78
2022/08/09 02:26:10;;;;;;;7.63;5.00;;;;;;;;;;5064292;28;20944;-77
2022/08/09 02:28:44;;;;;;;7.28;4.90;;;;;;;;;;5053610;28;20426;-78
2022/08/09 02:31:20;;;;;;;7.13;4.60;;;13.80;99.90;;;;;;5070235;28;20423;-77
2022/08/09 02:33:49;;;;;;;6.20;4.40;;;13.80;99.90;;;;;;5050732;28;20424;-78
2022/08/09 02:36:28;;;;;;;6.30;4.30;;;13.60;99.90;;;;;;5069232;28;20478;-78
2022/08/09 02:38:59;;;;;;;7.32;4.72;;;13.90;99.90;;;;;;5082026;28;20416;-78
2022/08/09 02:41:27;;;;;;;7.45;5.00;;;;;;;;;;5053139;28;20409;-78
2022/08/09 02:43:58;;;;;;;6.68;3.92;;;13.70;99.90;;;;;;5070004;28;20740;-78
2022/08/09 02:46:26;;;;;;;5.82;4.55;;;13.70;99.90;;;;;;5069185;28;20457;-78
2022/08/09 02:48:52;;;;;;;7.97;4.35;;;;;;;;;;5067567;28;20415;-78
2022/08/09 02:51:21;;;;;;;9.20;5.20;;;13.70;99.90;;;;;;5068805;28;20419;-78
2022/08/09 02:53:53;;;;;;;7.03;4.45;;;;;;;;;;5067296;28;20468;-78
2022/08/09 02:56:20;;;;;;;6.57;4.50;;;;;;;;;;5068873;28;20494;-78
2022/08/09 02:58:47;;;;;;;6.50;4.50;;;;;;;;;;5068209;28;20406;-78
2022/08/09 03:01:15;;;;;;;5.85;4.43;;;13.80;99.90;;;;;;5069377;28;20533;-77
2022/08/09 03:03:42;;;;;;;6.93;4.32;;;13.40;99.90;;;;;;5071813;28;20419;-77
2022/08/09 03:06:13;;;;;;;6.80;4.38;;;;;;;;;;5084882;28;20437;-77
2022/08/09 03:08:44;;;;;;;6.38;4.43;;;13.60;99.90;;;;;;5086088;28;20509;-78
2022/08/09 03:11:11;;;;;;;8.70;4.65;;;;;;;;;;5067878;28;20514;-78
2022/08/09 03:13:38;;;;;;;7.80;4.40;;;;;;;;;;5062592;28;20430;-75
2022/08/09 03:16:04;;;;;;;7.13;4.40;;;;;;;;;;5069645;28;20424;-75
2022/08/09 03:18:31;;;;;;;5.75;4.10;;;;;;;;;;5073111;28;20763;-77
2022/08/09 03:20:58;;;;;;;7.38;4.80;;;13.50;99.90;;;;;;5071716;28;20416;-76
2022/08/09 03:23:24;;;;;;;6.80;4.43;;;;;;;;;;5072554;28;20427;-76
2022/08/09 03:25:50;;;;;;;6.67;4.70;;;;;;;;;;5072523;28;20978;-76
2022/08/09 03:28:16;;;;;;;8.18;5.63;;;;;;;;;;5089678;28;20407;-77
2022/08/09 03:30:43;;;;;;;22.58;7.38;;;;;;;;;;5068853;28;20428;-77
2022/08/09 03:33:10;;;;;;;13.35;7.00;;;13.20;99.90;;;;;;5072847;28;20404;-77
2022/08/09 03:35:36;;;;;;;9.75;6.00;;;;;;;;;;5087604;28;20985;-77
2022/08/09 03:38:02;;;;;;;9.30;6.40;;;;;;;;;;5076142;28;20454;-77
2022/08/09 03:40:28;;;;;;;11.40;6.88;;;;;;;;;;5068112;28;20919;-77
2022/08/09 03:42:54;;;;;;;9.60;6.30;;;;;;;;;;5069706;28;20411;-77
2022/08/09 03:45:20;;;;;;;10.57;5.93;;;;;;;;;;5072184;28;20547;-77
2022/08/09 03:47:47;;;;;;;7.47;5.07;;;;;;;;;;5072450;28;20403;-76
2022/08/09 03:50:13;;;;;;;7.13;4.60;;;;;;;;;;5072004;28;20421;-77
2022/08/09 03:52:41;;;;;;;9.00;5.83;;;;;;;;;;5070693;28;20903;-77
2022/08/09 03:55:09;;;;;;;7.93;5.15;;;;;;;;;;5077331;28;20426;-77
2022/08/09 03:57:35;;;;;;;8.77;5.18;;;;;;;;;;5075700;28;20583;-77
2022/08/09 04:00:01;;;;;;;7.05;4.00;;;;;;;;;;5074416;28;20425;-77
2022/08/09 04:02:28;;;;;;;6.07;3.47;;;;;;;;;;5074530;28;20463;-77
2022/08/09 04:05:02;;;;;;;4.32;3.28;;;12.90;99.90;;;;;;5108871;28;20405;-77
2022/08/09 04:07:29;;;;;;;4.40;3.40;;;;;;;;;;5104747;28;21074;-77
2022/08/09 04:09:54;;;;;;;5.03;3.10;;;12.90;99.90;;;;;;5075005;28;20424;-77
2022/08/09 04:12:28;;;;;;;4.20;2.80;;;;;;;;;;5073094;28;20418;-76
2022/08/09 04:14:54;;;;;;;6.40;3.50;;;;;;;;;;5075728;28;20402;-77
2022/08/09 04:17:20;;;;;;;7.15;4.32;;;;;;;;;;5074641;28;20487;-77
2022/08/09 04:19:46;;;;;;;7.60;4.38;;;13.00;99.90;;;;;;5075451;28;20448;-77
2022/08/09 04:22:12;;;;;;;6.68;4.10;;;;;;;;;;5091080;28;20414;-77
2022/08/09 04:24:38;;;;;;;8.90;4.25;;;;;;;;;;5091279;28;20487;-77
2022/08/09 04:27:03;;;;;;;6.68;4.10;;;12.90;99.90;;;;;;5073572;28;20417;-76
2022/08/09 04:29:30;;;;;;;10.30;4.20;;;;;;;;;;5073580;28;20427;-76
2022/08/09 04:31:56;;;;;;;7.07;4.22;;;;;;;;;;5073882;28;20429;-77
2022/08/09 04:34:22;;;;;;;10.38;4.60;;;;;;;;;;5068012;28;20460;-76
2022/08/09 04:36:48;;;;;;;5.83;3.97;;;;;;;;;;5056407;28;20477;-76
2022/08/09 04:39:14;;;;;;;6.25;4.13;;;;;;;;;;5089588;28;20410;-76
2022/08/09 04:41:40;;;;;;;5.22;3.80;;;;;;;;;;5069462;28;20575;-76
2022/08/09 04:44:10;;;;;;;7.93;4.47;;;;;;;;;;5074317;28;20421;-75
2022/08/09 04:46:40;;;;;;;6.03;4.00;;;12.90;99.90;;;;;;5075309;28;20394;-76
2022/08/09 04:49:06;;;;;;;5.32;4.05;;;;;;;;;;5086602;28;20426;-77
2022/08/09 04:51:32;;;;;;;19.77;5.20;;;;;;;;;;5089221;28;20420;-77
2022/08/09 04:53:58;;;;;;;20.73;6.47;;;;;;;;;;5090618;28;20421;-76
2022/08/09 04:56:24;;;;;;;9.25;6.03;;;;;;;;;;5069220;28;20834;-76
2022/08/09 04:58:50;;;;;;;8.18;5.65;;;;;;;;;;5071513;28;20426;-76
2022/08/09 05:01:16;;;;;;;7.95;4.80;;;;;;;;;;5070673;28;20478;-75
2022/08/09 05:03:42;;;;;;;8.00;4.80;;;;;;;;;;5069625;28;20423;-76
2022/08/09 05:06:09;;;;;;;6.95;4.50;;;;;;;;;;5068458;28;20423;-76
2022/08/09 05:08:35;;;;;;;6.32;4.03;;;13.00;99.90;;;;;;5070069;28;20423;-76
2022/08/09 05:11:01;;;;;;;6.90;3.90;;;12.60;99.90;;;;;;5070423;28;20783;-76
2022/08/09 05:13:27;;;;;;;7.53;4.78;;;13.10;99.90;;;;;;5067695;28;20428;-77
2022/08/09 05:15:53;;;;;;;7.33;4.47;;;;;;;;;;5072643;28;20773;-76
2022/08/09 05:18:19;;;;;;;6.80;4.60;;;;;;;;;;5080960;28;20420;-76
2022/08/09 05:20:45;;;;;;;6.75;4.35;;;;;;;;;;5054298;28;20907;-74
2022/08/09 05:23:11;;;;;;;6.00;4.20;;;;;;;;;;5065073;28;20411;-76
2022/08/09 05:25:37;;;;;;;7.20;4.87;;;;;;;;;;5066834;28;20419;-75
2022/08/09 05:28:03;;;;;;;8.38;3.97;;;13.10;99.90;;;;;;5081898;28;20403;-76
2022/08/09 05:30:29;;;;;;;8.07;4.00;;;;;;;;;;5053738;28;20411;-76
2022/08/09 05:32:55;;;;;;;9.00;4.00;;;;;;;;;;5068911;28;20415;-76
2022/08/09 05:35:22;;;;;;;6.30;4.00;;;;;;;;;;5070586;28;20414;-76
2022/08/09 05:37:48;;;;;;;6.13;4.03;;;13.60;99.90;;;;;;5069012;28;20419;-76
2022/08/09 05:40:14;;;;;;;6.22;4.18;;;;;;;;;;5069176;28;20434;-76
2022/08/09 05:42:40;;;;;;;6.25;4.30;;;13.80;99.90;;;;;;5070387;28;20410;-76
2022/08/09 05:45:06;;;;;;;8.23;4.40;;;13.50;99.90;;;;;;5068099;28;20415;-75
2022/08/09 05:47:32;;;;;;;7.30;4.50;;;13.70;99.90;;;;;;5070956;28;20496;-76
2022/08/09 05:49:58;;;;;;;6.73;4.60;;;;;;;;;;5069348;28;20489;-76
2022/08/09 05:52:24;;;;;;;6.43;4.15;;;;;;;;;;5052739;28;20424;-75
2022/08/09 05:54:50;;;;;;;8.52;4.97;;;;;;;;;;5056160;28;20509;-76
2022/08/09 05:57:16;;;;;;;8.00;5.20;;;;;;;;;;5088854;28;20414;-75
2022/08/09 05:59:44;;;;;;;8.60;4.70;;;;;;;;;;5070385;28;20466;-76
2022/08/09 06:02:10;;;;;;;8.23;4.90;;;14.80;99.90;;;;;;5071842;28;20433;-75
2022/08/09 06:04:36;;;;;;;8.65;5.50;;;;;;;;;;5071838;28;20796;-76
2022/08/09 06:07:03;;;;;;;9.40;5.88;;;15.30;99.90;;;;;;5073726;28;20792;-75
2022/08/09 06:09:28;;;;;;;9.18;6.10;;;15.40;99.90;;;;;;5073347;28;20462;-76
2022/08/09 06:11:54;;;;;;;8.95;5.50;;;15.50;99.90;;;;;;5086463;28;20428;-74
2022/08/09 06:14:20;;;;;;;9.73;5.60;;;15.60;99.90;;;;;;5082074;28;20938;-74
2022/08/09 06:16:45;;;;;;;7.47;5.30;;;15.80;99.90;;;;;;5068649;28;20910;-74
2022/08/09 06:19:13;;;;;;;6.87;5.30;;;16.10;99.90;;;;;;5088092;28;20447;-74
2022/08/09 06:21:40;;;;;;;8.95;5.82;;;;;;;;;;5079173;28;20774;-74
2022/08/09 06:24:06;;;;;;;9.05;5.75;;;16.10;99.90;;;;;;5064627;28;20420;-74
2022/08/09 06:26:41;;;;;;;7.63;5.50;;;;;;;;;;5060767;28;20470;-74
2022/08/09 06:29:08;;;;;;;9.68;5.15;;;;;;;;;;5103454;28;20422;-74
2022/08/09 06:31:35;;;;;;;7.97;5.22;;;;;;;;;;5073502;28;20827;-74
2022/08/09 06:34:02;;;;;;;9.38;5.07;;;17.00;99.90;;;;;;5072651;28;20769;-73
2022/08/09 06:36:27;;;;;;;7.88;5.00;;;17.10;99.90;;;;;;5070935;28;20509;-75
2022/08/09 06:38:53;;;;;;;7.50;5.23;;;17.00;99.90;;;;;;5070077;28;20508;-75
2022/08/09 06:41:19;;;;;;;9.67;5.10;;;17.30;99.90;;;;;;5054540;28;20459;-75
2022/08/09 06:43:45;;;;;;;10.40;5.30;;;;;;;;;;5088044;28;20438;-75
2022/08/09 06:46:11;;;;;;;7.40;5.00;;;;;;;;;;5089802;28;20903;-75
2022/08/09 06:48:39;;;;;;;9.70;5.35;;;;;;;;;;5083006;28;20811;-76
2022/08/09 06:51:06;;;;;;;7.30;5.53;;;;;;;;;;5079585;28;20938;-75
2022/08/09 06:53:32;;;;;;;5.68;4.85;;;;;;;;;;5073505;28;20411;-75
2022/08/09 06:55:59;;;;;;;10.10;6.18;;;18.20;99.90;;;;;;5092980;28;20483;-75
2022/08/09 06:58:25;;;;;;;8.77;5.65;;;;;;;;;;5073235;28;20418;-76
2022/08/09 07:00:51;;;;;;;10.00;5.87;;;18.40;99.90;;;;;;5072561;28;20478;-74
2022/08/09 07:03:17;;;;;;;11.20;6.03;;;18.40;99.90;;;;;;5067625;28;20436;-75
2022/08/09 07:05:42;;;;;;;7.75;4.80;;;18.70;99.90;;;;;;5082364;28;20434;-75
2022/08/09 07:08:08;;;;;;;8.48;4.85;;;18.80;99.90;;;;;;5102688;28;20430;-76
2022/08/09 07:10:34;;;;;;;6.70;4.47;;;19.00;99.90;;;;;;5085832;28;20424;-75
2022/08/09 07:13:00;;;;;;;6.07;4.50;;;;;;;;;;5088401;28;20416;-75
2022/08/09 07:15:27;;;;;;;9.18;5.10;;;;;;;;;;5070591;28;20421;-75
2022/08/09 07:17:52;;;;;;;7.95;4.70;;;18.80;99.90;;;;;;5069215;28;20414;-74
2022/08/09 07:20:18;;;;;;;7.05;3.80;;;19.30;99.90;;;;;;5075531;28;20490;-74
2022/08/09 07:22:45;;;;;;;5.83;3.90;;;19.20;99.90;;;;;;5074679;28;20426;-74
2022/08/09 07:25:11;;;;;;;7.53;4.20;;;19.50;99.90;;;;;;5053610;28;20786;-75
2022/08/09 07:27:38;;;;;;;6.53;3.70;;;;;;;;;;5073221;28;20473;-74
2022/08/09 07:30:04;;;;;;;6.15;3.80;;;19.50;99.90;;;;;;5075725;28;20825;-75
2022/08/09 07:32:30;;;;;;;5.75;3.60;;;19.80;99.90;;;;;;5076070;28;20422;-74
2022/08/09 07:34:56;;;;;;;5.78;2.80;;;19.70;99.90;;;;;;5072744;28;20579;-75
2022/08/09 07:37:22;;;;;;;5.55;2.42;;;19.80;99.90;;;;;;5073526;28;21398;-75
2022/08/09 07:39:47;;;;;;;6.63;2.20;;;19.70;99.90;;;;;;5073540;28;20422;-74
2022/08/09 07:42:13;;;;;;;3.53;1.93;;;20.00;99.90;;;;;;5089776;28;20435;-74
2022/08/09 07:44:39;;;;;;;5.80;1.93;;;19.90;99.90;;;;;;5051761;28;20760;-76
2022/08/09 07:47:05;;;;;;;4.47;2.27;;;20.40;99.90;;;;;;5075864;28;20437;-74
2022/08/09 07:49:31;;;;;;;4.37;2.03;;;20.20;99.90;;;;;;5079226;28;20840;-74
2022/08/09 07:51:57;;;;;;;4.97;1.88;;;20.20;99.90;;;;;;5107777;28;20425;-74
2022/08/09 07:54:24;;;;;;;2.80;1.40;;;20.20;99.90;;;;;;5073494;28;20428;-75
2022/08/09 07:56:50;;;;;;;3.28;1.50;;;20.60;99.90;;;;;;5068798;28;20558;-75
2022/08/09 07:59:19;;;;;;;4.55;1.92;;;20.70;99.90;;;;;;5052373;28;20502;-75
2022/08/09 08:01:45;;;;;;;3.63;1.70;;;20.70;99.90;;;;;;5066404;28;20903;-75
2022/08/09 08:04:10;;;;;;;3.83;1.53;;;20.80;99.90;;;;;;5069891;28;20445;-76
2022/08/09 08:06:36;;;;;;;3.23;1.50;;;21.40;99.90;;;;;;5078436;28;21024;-76
2022/08/09 08:09:02;;;;;;;3.00;1.35;;;21.20;99.90;;;;;;5067519;28;20907;-76
2022/08/09 08:11:28;;;;;;;3.55;1.50;;;21.00;99.90;;;;;;5032328;28;20801;-75
2022/08/09 08:13:53;;;;;;;2.72;1.33;;;21.10;99.90;;;;;;5071218;28;20420;-76
2022/08/09 08:16:20;;;;;;;3.00;1.30;;;21.60;99.90;;;;;;5076253;28;20896;-76
2022/08/09 08:18:46;;;;;;;2.67;1.25;;;21.40;99.90;;;;;;5052078;28;20826;-76
2022/08/09 08:21:11;;;;;;;2.08;1.10;;;21.50;99.90;;;;;;5051379;28;20447;-76
2022/08/09 08:23:37;;;;;;;3.55;1.30;;;21.60;99.90;;;;;;5086759;28;20867;-75
2022/08/09 08:26:03;;;;;;;2.90;1.30;;;22.00;99.90;;;;;;5050248;28;20455;-76
2022/08/09 08:28:29;;;;;;;4.73;1.40;;;21.80;99.90;;;;;;5068006;28;20419;-76
2022/08/09 08:30:55;;;;;;;2.78;1.17;;;21.60;99.90;;;;;;5052737;28;20423;-75
2022/08/09 08:33:21;;;;;;;2.13;1.00;;;21.40;99.90;;;;;;5069934;28;20515;-76
2022/08/09 08:35:46;;;;;;;1.77;1.10;;;21.70;99.90;;;;;;5052030;28;20435;-76
2022/08/09 08:38:12;;;;;;;2.20;1.10;;;21.80;99.90;;;;;;5102432;28;20887;-76
2022/08/09 08:40:38;;;;;;;2.03;1.10;;;;;;;;;;5046932;28;20992;-76
2022/08/09 08:43:04;;;;;;;2.70;1.00;;;21.20;99.90;;;;;;5068566;28;20415;-76
2022/08/09 08:45:41;;;;;;;3.42;1.10;;;21.10;99.90;;;;;;5069148;28;20420;-76
2022/08/09 08:48:08;;;;;;;3.22;1.20;;;21.60;99.90;;;;;;5069323;28;20931;-77
2022/08/09 08:50:34;;;;;;;1.77;1.10;;;21.70;99.90;;;;;;5085895;28;20455;-77
2022/08/09 08:53:00;;;;;;;2.47;1.25;;;22.00;99.90;;;;;;5065524;28;20462;-76
2022/08/09 08:55:27;;;;;;;2.42;1.10;;;21.70;99.90;;;;;;5071312;28;20412;-78
2022/08/09 08:57:54;;;;;;;2.20;1.10;;;21.60;99.90;;;;;;5065745;28;20423;-77
2022/08/09 09:00:20;;;;;;;2.20;1.13;;;21.60;99.90;;;;;;5070499;28;20424;-75
2022/08/09 09:02:50;;;;;;;3.83;1.40;;;21.60;99.90;;;;;;5068823;28;20431;-75
2022/08/09 09:05:24;;;;;;;3.53;1.60;;;21.60;99.90;;;;;;5041374;28;20478;-74
2022/08/09 09:07:51;;;;;;;3.25;1.30;;;21.60;99.90;;;;;;5058458;28;20415;-75
2022/08/09 09:10:17;;;;;;;2.65;1.38;;;21.80;99.90;;;;;;5072617;28;20418;-75
2022/08/09 09:12:45;;;;;;;3.13;1.35;;;21.10;99.90;;;;;;5079470;28;20946;-75
2022/08/09 09:15:11;;;;;;;3.17;1.23;;;21.50;99.90;;;;;;5065597;28;20534;-75
2022/08/09 09:17:37;;;;;;;2.80;1.33;;;21.70;99.90;;;;;;5053325;28;20879;-75
2022/08/09 09:20:11;;;;;;;2.60;1.40;;;22.00;99.90;;;;;;5069397;28;20544;-75
2022/08/09 09:22:54;;;;;;;3.10;1.20;;;21.70;99.90;;;;;;5079257;28;20477;-75
2022/08/09 09:25:42;;;;;;;2.92;1.25;;;22.30;99.90;;;;;;5067739;28;20431;-75
2022/08/09 09:28:10;;;;;;;2.90;1.20;;;22.30;99.90;;;;;;5070507;28;20864;-75
2022/08/09 09:30:55;;;;;;;1.88;1.08;;;21.90;99.90;;;;;;5085970;28;20427;-76
2022/08/09 09:33:33;;;;;;;3.08;1.20;;;22.00;99.90;;;;;;5047437;28;20442;-75
2022/08/09 09:36:06;;;;;;;4.18;1.20;;;22.20;99.90;;;;;;5056241;28;22314;-75
2022/08/09 09:38:58;;;;;;;4.22;1.40;;;22.20;99.90;;;;;;5058133;28;20432;-75
2022/08/09 09:41:25;;;;;;;2.57;1.10;;;22.40;99.90;;;;;;5063652;28;20455;-74
2022/08/09 09:43:55;;;;;;;2.22;1.13;;;22.50;99.90;;;;;;5061454;28;20466;-75
2022/08/09 09:46:38;;;;;;;4.57;1.70;;;22.50;99.90;;;;;;5059300;28;20514;-75
2022/08/09 09:49:05;;;;;;;2.90;1.38;;;23.00;99.90;;;;;;5063876;28;20403;-75
2022/08/09 09:51:36;;;;;;;6.15;1.60;;;23.40;99.90;;;;;;5071881;28;20433;-75
2022/08/09 09:54:22;;;;;;;3.33;1.10;;;23.00;99.90;;;;;;5081917;28;20902;-76
2022/08/09 09:56:49;;;;;;;3.33;1.33;;;22.90;99.90;;;;;;5063624;28;20466;-75
2022/08/09 09:59:21;;;;;;;3.58;1.23;;;23.30;99.90;;;;;;5070231;28;20420;-76
2022/08/09 10:01:58;;;;;;;3.42;1.30;;;23.50;99.90;;;;;;5079939;28;20472;-76
2022/08/09 10:04:24;;;;;;;2.95;1.15;;;23.60;99.90;;;;;;5067202;28;20423;-76
2022/08/09 10:06:50;;;;;;;3.15;1.10;;;23.80;99.90;;;;;;5050675;28;20945;-75
2022/08/09 10:09:15;;;;;;;1.92;1.17;;;23.60;99.90;;;;;;5050110;28;20842;-76
2022/08/09 10:11:41;;;;;;;3.10;1.27;;;23.50;99.90;;;;;;5067954;28;20836;-75
2022/08/09 10:14:25;;;;;;;1.80;1.10;;;23.70;99.90;;;;;;5052020;28;20414;-76
2022/08/09 10:16:51;;;;;;;2.95;1.10;;;23.70;99.90;;;;;;5039718;28;20959;-75
2022/08/09 10:19:17;;;;;;;2.13;1.10;;;23.70;99.90;;;;;;5066201;28;20428;-76
2022/08/09 10:21:48;;;;;;;2.70;1.40;;;23.50;99.90;;;;;;5079051;28;20434;-76
2022/08/09 10:24:15;;;;;;;2.42;1.40;;;22.80;99.90;;;;;;5070218;28;20476;-75
2022/08/09 10:26:42;;;;;;;3.35;1.20;;;23.80;99.90;;;;;;5073432;28;20427;-76
2022/08/09 10:29:11;;;;;;;1.92;1.13;;;24.10;99.90;;;;;;5074345;28;20403;-76
2022/08/09 10:31:39;;;;;;;3.28;1.30;;;24.20;99.90;;;;;;5073968;28;20512;-75
2022/08/09 10:34:05;;;;;;;2.53;1.35;;;24.10;99.90;;;;;;5077927;28;20423;-76
2022/08/09 10:36:31;;;;;;;3.05;1.25;;;24.40;99.90;;;;;;5086737;28;20447;-75
2022/08/09 10:38:57;;;;;;;1.73;1.20;;;24.00;99.90;;;;;;5074618;28;20502;-75
2022/08/09 10:41:24;;;;;;;2.78;1.27;;;24.40;99.90;;;;;;5056113;28;20890;-75
2022/08/09 10:43:50;;;;;;;1.75;1.00;;;24.30;99.90;;;;;;5069659;28;20426;-76
2022/08/09 10:46:35;;;;;;;3.30;1.30;;;23.90;99.90;;;;;;5024750;28;20903;-75
2022/08/09 10:49:14;;;;;;;3.88;1.20;;;23.90;99.90;;;;;;5088084;28;20426;-74
2022/08/09 10:51:40;;;;;;;2.42;1.00;;;24.50;99.90;;;;;;5071449;28;20423;-74
2022/08/09 10:54:09;;;;;;;2.43;1.00;;;24.40;99.90;;;;;;5094576;28;20453;-74
2022/08/09 10:56:40;;;;;;;5.32;1.20;;;24.50;99.90;;;;;;5055533;28;20442;-75
2022/08/09 10:59:23;;;;;;;2.10;1.08;;;24.60;99.90;;;;;;5071413;28;20657;-75
2022/08/09 11:01:51;;;;;;;2.60;1.17;;;24.60;99.90;;;;;;5071833;28;20415;-75
2022/08/09 11:04:20;;;;;;;2.72;1.20;;;25.20;99.90;;;;;;5057120;28;20840;-75
2022/08/09 11:07:09;;;;;;;2.72;1.30;;;25.10;99.90;;;;;;5072153;28;20917;-75
2022/08/09 11:09:37;;;;;;;1.67;0.90;;;25.30;99.90;;;;;;5073997;28;20425;-75
2022/08/09 11:12:09;;;;;;;2.60;1.17;;;25.30;99.90;;;;;;5078193;28;20565;-75
2022/08/09 11:14:55;;;;;;;2.42;1.30;;;25.30;99.90;;;;;;5056806;28;20450;-74
2022/08/09 11:17:21;;;;;;;2.45;1.15;;;24.60;99.90;;;;;;5070877;28;20514;-75
2022/08/09 11:19:54;;;;;;;1.83;1.20;;;25.10;99.90;;;;;;5071496;28;20980;-74
2022/08/09 11:22:40;;;;;;;3.67;1.40;;;25.00;99.90;;;;;;5101622;28;20427;-75
2022/08/09 11:25:17;;;;;;;2.83;1.27;;;24.80;99.90;;;;;;5069111;28;20481;-74
2022/08/09 11:27:45;;;;;;;2.43;1.30;;;24.80;99.90;;;;;;5052362;28;20417;-74
2022/08/09 11:30:32;;;;;;;2.53;1.10;;;24.80;99.90;;;;;;5053470;28;20780;-75
2022/08/09 11:33:51;;;;;;;2.53;1.10;;;24.70;99.90;;;;;;5066484;28;20514;-75
2022/08/09 11:36:17;;;;;;;1.38;1.00;;;25.10;99.90;;;;;;5076107;28;20471;-74
2022/08/09 11:38:42;;;;;;;2.25;1.10;;;25.10;99.90;;;;;;5057066;28;20807;-75
2022/08/09 11:41:12;;;;;;;2.67;1.10;;;25.40;99.90;;;;;;5070855;28;20425;-75
2022/08/09 11:43:45;;;;;;;2.47;1.20;;;25.50;99.90;;;;;;5066248;28;20417;-75
2022/08/09 11:46:11;;;;;;;3.10;1.08;;;25.60;99.90;;;;;;5067369;28;20462;-74
2022/08/09 11:48:55;;;;;;;2.25;1.00;;;25.30;99.90;;;;;;5068933;28;20950;-75
2022/08/09 11:51:24;;;;;;;2.60;0.90;;;25.20;99.90;;;;;;5068637;28;20596;-75
2022/08/09 11:54:11;;;;;;;1.80;1.10;;;25.40;99.90;;;;;;5072719;28;20422;-76
2022/08/09 11:56:36;;;;;;;3.45;1.00;;;25.50;99.90;;;;;;5067347;28;20434;-75
2022/08/09 11:59:02;;;;;;;2.20;0.90;;;25.70;99.90;;;;;;5072558;28;20412;-76
2022/08/09 12:01:36;;;;;;;1.37;0.90;;;25.90;99.90;;;;;;5071607;28;20487;-76
2022/08/09 12:04:05;;;;;;;2.20;0.93;;;26.30;99.90;;;;;;5048054;28;20423;-75
2022/08/09 12:06:32;;;;;;;1.60;0.90;;;26.30;99.90;;;;;;5057203;28;20882;-76
2022/08/09 12:08:59;;;;;;;1.88;1.02;;;26.50;99.90;;;;;;5070273;28;20519;-76
2022/08/09 12:11:26;;;;;;;1.58;1.10;;;26.30;99.90;;;;;;5061065;28;20451;-75
2022/08/09 12:13:57;;;;;;;1.40;0.87;;;26.00;99.90;;;;;;5068086;28;20431;-75
2022/08/09 12:16:31;;;;;;;3.05;0.90;;;26.30;99.90;;;;;;5065988;28;20427;-76
2022/08/09 12:18:58;;;;;;;2.07;0.93;;;26.60;99.90;;;;;;5067326;28;20494;-76
2022/08/09 12:21:27;;;;;;;2.05;0.98;;;26.60;99.90;;;;;;5068241;28;20943;-76
2022/08/09 12:23:54;;;;;;;4.43;1.10;;;26.60;99.90;;;;;;5068843;28;20434;-75
2022/08/09 12:26:21;;;;;;;2.33;0.90;;;26.40;99.90;;;;;;5048478;28;20785;-75
2022/08/09 12:28:49;;;;;;;1.15;0.88;;;26.10;99.90;;;;;;5034016;28;20829;-76
2022/08/09 12:31:23;;;;;;;1.88;0.90;;;26.40;99.90;;;;;;5061642;28;20465;-76
2022/08/09 12:33:50;;;;;;;1.38;0.80;;;26.60;99.90;;;;;;5069569;28;20477;-75
2022/08/09 12:36:16;;;;;;;1.23;0.90;;;27.00;99.90;;;;;;5061957;28;20960;-75
2022/08/09 12:38:42;;;;;;;1.73;0.82;;;27.00;99.90;;;;;;5070016;28;20415;-76
2022/08/09 12:41:08;;;;;;;0.80;0.80;;;27.10;99.90;;;;;;5065903;28;20793;-76
2022/08/09 12:43:34;;;;;;;1.73;0.80;;;27.00;99.90;;;;;;5070619;28;20420;-75
2022/08/09 12:46:01;;;;;;;1.13;0.80;;;26.80;99.90;;;;;;5064628;28;20430;-74
2022/08/09 12:48:29;;;;;;;1.73;1.10;;;26.90;99.90;;;;;;5064204;28;20501;-76
2022/08/09 12:50:55;;;;;;;2.85;1.02;;;28.30;99.90;;;;;;5061467;28;20929;-75
2022/08/09 12:53:24;;;;;;;1.15;0.90;;;27.10;99.90;;;;;;5063057;28;20420;-76
2022/08/09 12:55:50;;;;;;;2.03;0.90;;;27.20;99.90;;;;;;5048766;28;20454;-76
2022/08/09 12:58:16;;;;;;;2.08;1.00;;;27.20;99.90;;;;;;5070403;28;20448;-76
2022/08/09 13:00:43;;;;;;;3.37;1.03;;;27.00;99.90;;;;;;5069906;28;20407;-76
2022/08/09 13:03:08;;;;;;;1.45;1.00;;;26.40;99.90;;;;;;5067719;28;20895;-76
2022/08/09 13:05:43;;;;;;;2.38;1.02;;;26.90;99.90;;;;;;5101772;28;20477;-76
2022/08/09 13:08:11;;;;;;;1.80;0.90;;;26.90;99.90;;;;;;5066466;28;20452;-76
2022/08/09 13:10:44;;;;;;;1.40;1.00;;;27.10;99.90;;;;;;5044440;28;20420;-76
2022/08/09 13:13:10;;;;;;;3.08;1.00;;;27.00;99.90;;;;;;5098436;28;20510;-76
2022/08/09 13:15:50;;;;;;;1.27;1.00;;;27.10;99.90;;;;;;5034521;28;20747;-77
2022/08/09 13:18:17;;;;;;;1.75;1.20;;;27.00;99.90;;;;;;5103049;28;20424;-76
2022/08/09 13:20:42;;;;;;;2.72;1.35;;;26.80;99.90;;;;;;5068431;28;20421;-76
2022/08/09 13:23:08;;;;;;;1.43;1.10;;;26.50;99.90;;;;;;5056964;28;20424;-76
2022/08/09 13:25:43;;;;;;;1.75;1.20;;;26.80;99.90;;;;;;5053211;28;20441;-76
2022/08/09 13:28:14;;;;;;;2.20;1.20;;;26.70;99.90;;;;;;5068932;28;20420;-76